createdAt,value
2023-01-17T00:00:03.676Z,97743.16
2023-01-17T00:02:35.909Z,97743.66
2023-01-17T00:05:18.505Z,97742.69
2023-01-17T00:08:00.800Z,97746.00
2023-01-17T00:10:31.631Z,97747.19
2023-01-17T00:13:03.475Z,97755.00
2023-01-17T00:15:37.302Z,97751.28
2023-01-17T00:18:07.313Z,97759.66
2023-01-17T00:20:49.854Z,97756.63
2023-01-17T00:23:34.608Z,97769.66
2023-01-17T00:26:07.703Z,97762.84
2023-01-17T00:28:36.931Z,97762.13
2023-01-17T00:31:08.222Z,97751.41
2023-01-17T00:33:36.387Z,97752.59
2023-01-17T00:36:05.410Z,97755.38
2023-01-17T00:38:35.553Z,97746.78
2023-01-17T00:41:04.353Z,97735.47
2023-01-17T00:43:47.386Z,97746.31
2023-01-17T00:46:33.292Z,97766.28
2023-01-17T00:49:15.750Z,97766.75
2023-01-17T00:51:58.132Z,97761.47
2023-01-17T00:54:40.601Z,97762.50
2023-01-17T00:57:23.301Z,97758.81
2023-01-17T01:00:06.185Z,97764.31
2023-01-17T01:02:52.309Z,97761.47
2023-01-17T01:05:35.408Z,97768.75
2023-01-17T01:08:18.421Z,97768.31
2023-01-17T01:11:02.474Z,97756.38
2023-01-17T01:13:46.377Z,97761.22
2023-01-17T01:16:30.085Z,97765.53
2023-01-17T01:19:15.339Z,97763.88
2023-01-17T01:21:58.113Z,97771.25
2023-01-17T01:24:40.705Z,97767.47
2023-01-17T01:27:23.181Z,97767.47
2023-01-17T01:30:05.744Z,97771.03
2023-01-17T01:32:48.136Z,97766.81
2023-01-17T01:35:21.226Z,97770.94
2023-01-17T01:37:51.110Z,97773.44
2023-01-17T01:40:21.891Z,97785.13
2023-01-17T01:42:53.364Z,97774.69
2023-01-17T01:45:25.859Z,97773.94
2023-01-17T01:48:03.218Z,97771.28
2023-01-17T01:50:39.123Z,97768.09
2023-01-17T01:53:10.481Z,97771.91
2023-01-17T01:55:45.579Z,97770.72
2023-01-17T01:58:21.766Z,97767.34
2023-01-17T02:00:52.348Z,97773.03
2023-01-17T02:03:29.422Z,97778.22
2023-01-17T02:06:10.365Z,97776.81
2023-01-17T02:08:40.328Z,97783.94
2023-01-17T02:11:10.293Z,97791.00
2023-01-17T02:13:40.230Z,97781.97
2023-01-17T02:16:24.578Z,97780.06
2023-01-17T02:19:06.190Z,97779.72
2023-01-17T02:21:47.957Z,97770.25
2023-01-17T02:24:42.132Z,97775.66
2023-01-17T02:27:27.202Z,97777.41
2023-01-17T02:30:35.608Z,97789.09
2023-01-17T02:33:17.324Z,97778.59
2023-01-17T02:35:59.577Z,97782.66
2023-01-17T02:38:41.512Z,97786.22
2023-01-17T02:41:20.909Z,97793.31
2023-01-17T02:43:53.423Z,97794.97
2023-01-17T02:46:25.979Z,97794.59
2023-01-17T02:48:58.891Z,97801.38
2023-01-17T02:51:50.049Z,97808.00
2023-01-17T02:54:38.692Z,97805.03
2023-01-17T02:57:34.601Z,97791.34
2023-01-17T03:00:17.503Z,97803.66
2023-01-17T03:03:01.540Z,97799.72
2023-01-17T03:05:39.461Z,97804.41
2023-01-17T03:08:10.289Z,97798.84
2023-01-17T03:10:40.115Z,97807.84
2023-01-17T03:13:09.998Z,97810.38
2023-01-17T03:15:41.337Z,97808.19
2023-01-17T03:18:18.011Z,97809.25
2023-01-17T03:20:47.875Z,97811.47
2023-01-17T03:23:17.719Z,97799.06
2023-01-17T03:25:47.581Z,97805.94
2023-01-17T03:28:17.416Z,97803.78
2023-01-17T03:30:47.377Z,97806.94
2023-01-17T03:33:21.706Z,97812.09
2023-01-17T03:35:51.565Z,97821.69
2023-01-17T03:38:21.362Z,97824.34
2023-01-17T03:40:51.290Z,97824.31
2023-01-17T03:43:21.241Z,97819.03
2023-01-17T03:45:54.492Z,97817.72
2023-01-17T03:48:27.015Z,97821.44
2023-01-17T03:50:56.862Z,97818.66
2023-01-17T03:53:27.121Z,97815.66
2023-01-17T03:55:57.015Z,97813.69
2023-01-17T03:58:26.980Z,97810.78
2023-01-17T04:00:56.959Z,97802.88
2023-01-17T04:03:29.508Z,97804.13
2023-01-17T04:05:59.378Z,97804.63
2023-01-17T04:08:29.486Z,97799.56
2023-01-17T04:10:59.533Z,97800.94
2023-01-17T04:13:29.439Z,97798.41
2023-01-17T04:15:59.584Z,97798.69
2023-01-17T04:18:32.035Z,97803.44
2023-01-17T04:21:01.845Z,97804.19
2023-01-17T04:23:32.076Z,97794.34
2023-01-17T04:26:03.683Z,97793.16
2023-01-17T04:28:33.554Z,97787.66
2023-01-17T04:31:03.494Z,97792.88
2023-01-17T04:33:36.029Z,97786.19
2023-01-17T04:36:06.026Z,97791.34
2023-01-17T04:38:35.840Z,97793.16
2023-01-17T04:41:05.714Z,97796.44
2023-01-17T04:43:35.612Z,97786.78
2023-01-17T04:46:10.125Z,97787.84
2023-01-17T04:48:42.666Z,97791.44
2023-01-17T04:51:12.673Z,97782.94
2023-01-17T04:53:42.613Z,97788.84
2023-01-17T04:56:12.445Z,97782.75
2023-01-17T04:58:42.392Z,97780.19
2023-01-17T05:01:12.749Z,97778.19
2023-01-17T05:03:45.243Z,97767.63
2023-01-17T05:06:15.083Z,97769.56
2023-01-17T05:08:45.013Z,97761.66
2023-01-17T05:11:14.853Z,97771.13
2023-01-17T05:13:44.691Z,97768.66
2023-01-17T05:16:14.825Z,97763.59
2023-01-17T05:18:47.202Z,97764.06
2023-01-17T05:21:17.053Z,97768.56
2023-01-17T05:23:46.943Z,97773.81
2023-01-17T05:26:17.123Z,97767.06
2023-01-17T05:28:47.004Z,97770.66
2023-01-17T05:31:17.001Z,97772.13
2023-01-17T05:33:49.489Z,97774.22
2023-01-17T05:36:21.151Z,97769.72
2023-01-17T05:38:51.104Z,97768.91
2023-01-17T05:41:20.963Z,97768.25
2023-01-17T05:43:50.919Z,97770.69
2023-01-17T05:46:20.789Z,97765.75
2023-01-17T05:48:53.212Z,97761.25
2023-01-17T05:51:23.031Z,97762.91
2023-01-17T05:53:52.882Z,97765.75
2023-01-17T05:56:22.770Z,97758.53
2023-01-17T05:58:52.583Z,97756.38
2023-01-17T06:01:22.422Z,97750.66
2023-01-17T06:03:54.874Z,97747.75
2023-01-17T06:06:25.268Z,97738.81
2023-01-17T06:08:55.092Z,97743.22
2023-01-17T06:11:25.028Z,97736.59
2023-01-17T06:13:54.948Z,97742.16
2023-01-17T06:16:24.849Z,97740.16
2023-01-17T06:18:57.344Z,97747.13
2023-01-17T06:21:27.318Z,97747.19
2023-01-17T06:23:58.020Z,97749.34
2023-01-17T06:26:28.009Z,97751.06
2023-01-17T06:28:57.866Z,97739.31
2023-01-17T06:31:27.670Z,97738.19
2023-01-17T06:34:00.134Z,97739.91
2023-01-17T06:36:29.948Z,97742.69
2023-01-17T06:38:59.861Z,97746.38
2023-01-17T06:41:29.790Z,97746.44
2023-01-17T06:43:59.796Z,97748.84
2023-01-17T06:46:29.772Z,97748.59
2023-01-17T06:49:02.216Z,97750.75
2023-01-17T06:51:32.027Z,97753.50
2023-01-17T06:54:01.822Z,97745.00
2023-01-17T06:56:33.512Z,97746.31
2023-01-17T06:59:03.366Z,97746.91
2023-01-17T07:01:33.676Z,97750.81
2023-01-17T07:04:06.643Z,97739.03
2023-01-17T07:06:38.672Z,97738.00
2023-01-17T07:09:08.533Z,97740.03
2023-01-17T07:11:38.466Z,97717.91
2023-01-17T07:14:08.282Z,97722.00
2023-01-17T07:16:38.169Z,97704.59
2023-01-17T07:19:10.649Z,97705.47
2023-01-17T07:21:40.527Z,97692.13
2023-01-17T07:24:11.314Z,97695.84
2023-01-17T07:26:41.193Z,97693.16
2023-01-17T07:29:11.154Z,97696.50
2023-01-17T07:31:41.208Z,97704.59
2023-01-17T07:34:14.403Z,97709.19
2023-01-17T07:36:44.477Z,97707.53
2023-01-17T07:39:14.500Z,97719.91
2023-01-17T07:41:45.044Z,97717.19
2023-01-17T07:44:15.105Z,97720.47
2023-01-17T07:46:44.967Z,97718.97
2023-01-17T07:49:17.433Z,97716.84
2023-01-17T07:51:49.409Z,97718.19
2023-01-17T07:54:19.300Z,97703.44
2023-01-17T07:56:49.148Z,97697.84
2023-01-17T07:59:18.949Z,97702.69
2023-01-17T08:01:48.939Z,97701.91
2023-01-17T08:04:21.459Z,97699.25
2023-01-17T08:06:51.785Z,97699.47
2023-01-17T08:09:21.877Z,97698.69
2023-01-17T08:11:51.811Z,97697.47
2023-01-17T08:14:21.698Z,97697.84
2023-01-17T08:16:51.659Z,97700.13
2023-01-17T08:19:27.134Z,97702.22
2023-01-17T08:21:57.075Z,97713.19
2023-01-17T08:24:26.914Z,97713.19
2023-01-17T08:26:57.366Z,97712.09
2023-01-17T08:29:27.711Z,97707.72
2023-01-17T08:31:57.929Z,97707.47
2023-01-17T08:34:30.495Z,97712.03
2023-01-17T08:37:00.311Z,97709.38
2023-01-17T08:39:30.201Z,97699.97
2023-01-17T08:42:00.129Z,97709.72
2023-01-17T08:44:29.999Z,97705.13
2023-01-17T08:47:00.024Z,97701.94
2023-01-17T08:49:32.505Z,97704.47
2023-01-17T08:52:02.399Z,97693.84
2023-01-17T08:54:32.279Z,97690.66
2023-01-17T08:57:03.434Z,97695.22
2023-01-17T08:59:33.428Z,97695.59
2023-01-17T09:02:15.039Z,97690.31
2023-01-17T09:04:50.386Z,97691.50
2023-01-17T09:07:24.462Z,97691.53
2023-01-17T09:09:54.371Z,97694.25
2023-01-17T09:12:24.500Z,97684.22
2023-01-17T09:14:54.371Z,97696.69
2023-01-17T09:17:24.344Z,97677.03
2023-01-17T09:19:59.416Z,97682.81
2023-01-17T09:22:29.668Z,97677.66
2023-01-17T09:24:59.935Z,97675.28
2023-01-17T09:27:29.812Z,97671.88
2023-01-17T09:29:59.727Z,97676.47
2023-01-17T09:32:29.544Z,97673.59
2023-01-17T09:35:03.235Z,97673.22
2023-01-17T09:37:33.171Z,97674.91
2023-01-17T09:40:03.611Z,97675.28
2023-01-17T09:42:39.729Z,97681.88
2023-01-17T09:45:20.809Z,97684.72
2023-01-17T09:47:55.017Z,97686.09
2023-01-17T09:50:36.075Z,97673.63
2023-01-17T09:53:15.311Z,97670.13
2023-01-17T09:55:55.608Z,97680.66
2023-01-17T09:58:35.204Z,97676.72
2023-01-17T10:01:17.460Z,97671.63
2023-01-17T10:04:15.537Z,97679.00
2023-01-17T10:07:04.857Z,97674.69
2023-01-17T10:09:55.923Z,97674.75
2023-01-17T10:12:36.292Z,97674.13
2023-01-17T10:15:31.211Z,97660.72
2023-01-17T10:18:29.939Z,97664.84
2023-01-17T10:21:08.845Z,97667.75
2023-01-17T10:24:00.184Z,97661.34
2023-01-17T10:26:30.547Z,97656.84
2023-01-17T10:29:06.576Z,97658.88
2023-01-17T10:31:46.309Z,97662.59
2023-01-17T10:34:21.511Z,97648.59
2023-01-17T10:37:00.437Z,97642.00
2023-01-17T10:39:34.204Z,97636.63
2023-01-17T10:42:16.235Z,97624.69
2023-01-17T10:44:54.108Z,97621.81
2023-01-17T10:47:28.007Z,97622.03
2023-01-17T10:50:03.169Z,97615.03
2023-01-17T10:52:43.289Z,97616.63
2023-01-17T10:55:31.881Z,97611.81
2023-01-17T10:58:01.876Z,97618.00
2023-01-17T11:00:46.446Z,97612.31
2023-01-17T11:03:20.855Z,97605.78
2023-01-17T11:06:19.956Z,97604.75
2023-01-17T11:08:56.501Z,97599.78
2023-01-17T11:11:32.822Z,97594.09
2023-01-17T11:14:07.616Z,97592.16
2023-01-17T11:16:37.540Z,97587.63
2023-01-17T11:19:11.419Z,97590.69
2023-01-17T11:21:44.098Z,97584.00
2023-01-17T11:24:23.410Z,97574.16
2023-01-17T11:26:56.837Z,97572.22
2023-01-17T11:29:36.903Z,97572.88
2023-01-17T11:32:31.026Z,97567.66
2023-01-17T11:35:25.662Z,97562.19
2023-01-17T11:38:03.319Z,97553.38
2023-01-17T11:40:38.898Z,97559.56
2023-01-17T11:43:24.138Z,97549.69
2023-01-17T11:46:07.588Z,97535.56
2023-01-17T11:48:40.374Z,97526.81
2023-01-17T11:51:28.306Z,97517.88
2023-01-17T11:54:11.159Z,97512.13
2023-01-17T11:56:44.286Z,97510.50
2023-01-17T11:59:30.037Z,97499.59
2023-01-17T12:02:44.416Z,97502.91
2023-01-17T12:05:37.113Z,97503.53
2023-01-17T12:08:20.807Z,97506.41
2023-01-17T12:11:05.223Z,97497.97
2023-01-17T12:14:01.546Z,97493.72
2023-01-17T12:17:00.576Z,97475.81
2023-01-17T12:20:01.203Z,97460.63
2023-01-17T12:22:50.984Z,97450.06
2023-01-17T12:25:43.078Z,97452.22
2023-01-17T12:28:39.241Z,97432.56
2023-01-17T12:31:27.108Z,97423.81
2023-01-17T12:34:08.302Z,97429.91
2023-01-17T12:36:49.618Z,97415.22
2023-01-17T12:39:26.175Z,97414.00
2023-01-17T12:42:04.331Z,97406.69
2023-01-17T12:44:55.852Z,97400.63
2023-01-17T12:47:25.749Z,97400.88
2023-01-17T12:50:09.580Z,97396.22
2023-01-17T12:52:55.539Z,97397.75
2023-01-17T12:55:39.202Z,97401.16
2023-01-17T12:58:18.061Z,97393.06
2023-01-17T13:00:54.406Z,97402.72
2023-01-17T13:03:34.329Z,97404.78
2023-01-17T13:06:09.948Z,97394.03
2023-01-17T13:08:46.551Z,97395.88
2023-01-17T13:11:28.401Z,97396.66
2023-01-17T13:14:00.081Z,97413.03
2023-01-17T13:16:36.669Z,97409.16
2023-01-17T13:19:18.531Z,97413.03
2023-01-17T13:21:52.594Z,97414.53
2023-01-17T13:24:29.451Z,97416.47
2023-01-17T13:27:19.613Z,97415.66
2023-01-17T13:30:07.082Z,97415.38
2023-01-17T13:33:02.950Z,97417.44
2023-01-17T13:35:43.713Z,97408.78
2023-01-17T13:38:37.214Z,97408.84
2023-01-17T13:41:19.356Z,97404.31
2023-01-17T13:44:09.732Z,97405.53
2023-01-17T13:47:01.203Z,97407.00
2023-01-17T13:49:49.511Z,97404.97
2023-01-17T13:52:38.299Z,97406.84
2023-01-17T13:55:11.001Z,97401.28
2023-01-17T13:57:46.327Z,97406.78
2023-01-17T14:00:55.076Z,97402.41
2023-01-17T14:04:01.001Z,97404.81
2023-01-17T14:06:36.681Z,97405.59
2023-01-17T14:09:15.954Z,97405.84
2023-01-17T14:12:05.676Z,97399.53
2023-01-17T14:14:53.714Z,97406.94
2023-01-17T14:17:49.813Z,97408.28
2023-01-17T14:20:58.044Z,97418.84
2023-01-17T14:23:35.836Z,97421.19
2023-01-17T14:26:25.168Z,97429.00
2023-01-17T14:28:59.100Z,97421.38
2023-01-17T14:31:30.719Z,97418.31
2023-01-17T14:34:15.516Z,97425.56
2023-01-17T14:36:45.413Z,97423.19
2023-01-17T14:39:24.065Z,97419.53
2023-01-17T14:41:55.074Z,97414.84
2023-01-17T14:44:27.623Z,97419.94
2023-01-17T14:46:58.204Z,97420.41
2023-01-17T14:49:28.126Z,97417.09
2023-01-17T14:52:02.394Z,97423.75
2023-01-17T14:54:32.644Z,97415.97
2023-01-17T14:57:18.155Z,97415.50
2023-01-17T14:59:50.632Z,97421.03
2023-01-17T15:02:21.874Z,97425.00
2023-01-17T15:04:57.972Z,97429.13
2023-01-17T15:07:28.967Z,97427.78
2023-01-17T15:09:58.850Z,97429.22
2023-01-17T15:12:28.798Z,97423.19
2023-01-17T15:15:01.252Z,97418.44
2023-01-17T15:17:31.100Z,97416.88
2023-01-17T15:20:09.839Z,97417.81
2023-01-17T15:22:40.089Z,97414.91
2023-01-17T15:25:16.180Z,97414.34
2023-01-17T15:27:46.449Z,97410.91
2023-01-17T15:30:24.889Z,97407.19
2023-01-17T15:32:55.103Z,97413.78
2023-01-17T15:35:25.329Z,97413.31
2023-01-17T15:37:58.335Z,97409.41
2023-01-17T15:40:31.270Z,97420.53
2023-01-17T15:43:05.258Z,97417.84
2023-01-17T15:45:38.806Z,97424.25
2023-01-17T15:48:38.768Z,97424.06
2023-01-17T15:51:09.140Z,97419.31
2023-01-17T15:53:42.548Z,97414.16
2023-01-17T15:56:33.457Z,97424.47
2023-01-17T15:59:29.793Z,97426.00
2023-01-17T16:02:02.422Z,97425.84
2023-01-17T16:04:37.440Z,97429.38
2023-01-17T16:07:22.477Z,97434.72
2023-01-17T16:09:52.851Z,97430.81
2023-01-17T16:12:22.707Z,97436.16
2023-01-17T16:15:10.892Z,97432.66
2023-01-17T16:17:48.667Z,97434.91
2023-01-17T16:20:25.421Z,97431.22
2023-01-17T16:22:55.320Z,97430.41
2023-01-17T16:25:32.357Z,97429.19
2023-01-17T16:28:02.707Z,97427.75
2023-01-17T16:30:33.779Z,97429.19
2023-01-17T16:33:07.319Z,97429.63
2023-01-17T16:35:37.770Z,97418.91
2023-01-17T16:38:10.339Z,97422.81
2023-01-17T16:40:43.991Z,97416.44
2023-01-17T16:43:15.836Z,97412.56
2023-01-17T16:45:49.230Z,97413.59
2023-01-17T16:48:22.265Z,97407.81
2023-01-17T16:50:54.439Z,97419.34
2023-01-17T16:53:26.577Z,97425.72
2023-01-17T16:55:59.576Z,97414.00
2023-01-17T16:58:29.430Z,97419.34
2023-01-17T17:01:00.412Z,97416.47
2023-01-17T17:03:33.008Z,97414.41
2023-01-17T17:06:04.188Z,97414.00
2023-01-17T17:08:36.608Z,97414.66
2023-01-17T17:11:13.292Z,97414.22
2023-01-17T17:13:44.194Z,97421.22
2023-01-17T17:16:16.541Z,97420.78
2023-01-17T17:18:57.132Z,97417.72
2023-01-17T17:21:27.887Z,97420.59
2023-01-17T17:23:59.634Z,97425.53
2023-01-17T17:26:34.183Z,97434.16
2023-01-17T17:29:04.825Z,97434.97
2023-01-17T17:31:34.994Z,97440.97
2023-01-17T17:34:09.338Z,97439.50
2023-01-17T17:36:40.016Z,97448.56
2023-01-17T17:39:14.876Z,97453.50
2023-01-17T17:41:46.770Z,97447.94
2023-01-17T17:44:17.635Z,97454.91
2023-01-17T17:46:49.314Z,97455.16
2023-01-17T17:49:22.833Z,97460.06
2023-01-17T17:51:52.823Z,97462.94
2023-01-17T17:54:24.709Z,97457.38
2023-01-17T17:56:54.551Z,97468.69
2023-01-17T17:59:24.436Z,97457.00
2023-01-17T18:01:54.669Z,97472.22
2023-01-17T18:04:27.494Z,97476.53
2023-01-17T18:07:00.010Z,97488.44
2023-01-17T18:09:29.927Z,97491.75
2023-01-17T18:12:00.421Z,97486.78
2023-01-17T18:14:30.396Z,97489.66
2023-01-17T18:17:00.321Z,97494.22
2023-01-17T18:19:32.939Z,97495.63
2023-01-17T18:22:03.814Z,97497.91
2023-01-17T18:24:33.771Z,97501.16
2023-01-17T18:27:03.731Z,97511.66
2023-01-17T18:29:33.930Z,97510.81
2023-01-17T18:32:03.851Z,97509.38
2023-01-17T18:34:41.467Z,97510.63
2023-01-17T18:37:11.561Z,97511.25
2023-01-17T18:39:41.418Z,97520.50
2023-01-17T18:42:11.927Z,97514.78
2023-01-17T18:44:41.912Z,97513.94
2023-01-17T18:47:13.122Z,97521.72
2023-01-17T18:49:45.732Z,97515.56
2023-01-17T18:52:15.800Z,97523.19
2023-01-17T18:54:45.862Z,97527.06
2023-01-17T18:57:15.801Z,97524.41
2023-01-17T18:59:45.781Z,97523.81
2023-01-17T19:02:15.855Z,97531.59
2023-01-17T19:04:48.429Z,97534.91
2023-01-17T19:07:18.413Z,97539.66
2023-01-17T19:09:48.346Z,97540.22
2023-01-17T19:12:20.009Z,97545.19
2023-01-17T19:14:50.663Z,97549.63
2023-01-17T19:17:20.790Z,97553.38
2023-01-17T19:19:55.406Z,97550.06
2023-01-17T19:22:27.037Z,97558.81
2023-01-17T19:24:57.076Z,97567.78
2023-01-17T19:27:27.057Z,97565.22
2023-01-17T19:29:56.968Z,97569.31
2023-01-17T19:32:26.997Z,97567.44
2023-01-17T19:34:59.579Z,97574.94
2023-01-17T19:37:29.641Z,97580.72
2023-01-17T19:39:59.541Z,97576.81
2023-01-17T19:42:29.547Z,97574.72
2023-01-17T19:44:59.456Z,97580.91
2023-01-17T19:47:29.362Z,97582.91
2023-01-17T19:50:02.047Z,97577.56
2023-01-17T19:52:32.995Z,97574.25
2023-01-17T19:55:03.032Z,97578.28
2023-01-17T19:57:34.913Z,97578.84
2023-01-17T20:00:06.109Z,97583.81
2023-01-17T20:02:42.973Z,97580.38
2023-01-17T20:05:15.797Z,97575.63
2023-01-17T20:07:45.778Z,97571.25
2023-01-17T20:10:15.751Z,97577.56
2023-01-17T20:12:45.737Z,97576.28
2023-01-17T20:15:15.697Z,97578.59
2023-01-17T20:17:45.738Z,97573.59
2023-01-17T20:20:19.372Z,97574.94
2023-01-17T20:22:49.369Z,97584.59
2023-01-17T20:25:19.534Z,97576.22
2023-01-17T20:27:49.512Z,97569.03
2023-01-17T20:30:24.529Z,97579.09
2023-01-17T20:32:55.654Z,97574.09
2023-01-17T20:35:28.799Z,97573.03
2023-01-17T20:37:58.968Z,97569.34
2023-01-17T20:40:29.194Z,97581.03
2023-01-17T20:42:59.114Z,97572.41
2023-01-17T20:45:29.129Z,97582.94
2023-01-17T20:47:59.345Z,97574.38
2023-01-17T20:50:31.974Z,97572.81
2023-01-17T20:53:01.885Z,97574.06
2023-01-17T20:55:31.807Z,97572.34
2023-01-17T20:58:01.928Z,97577.34
2023-01-17T21:00:31.989Z,97576.22
2023-01-17T21:03:03.745Z,97574.09
2023-01-17T21:05:36.549Z,97579.38
2023-01-17T21:08:06.929Z,97580.41
2023-01-17T21:10:38.283Z,97581.59
2023-01-17T21:13:08.166Z,97577.53
2023-01-17T21:15:44.201Z,97580.31
2023-01-17T21:18:14.400Z,97576.00
2023-01-17T21:20:47.220Z,97578.31
2023-01-17T21:23:20.599Z,97576.66
2023-01-17T21:25:59.754Z,97577.53
2023-01-17T21:28:32.518Z,97580.63
2023-01-17T21:31:02.508Z,97580.56
2023-01-17T21:33:32.434Z,97585.41
2023-01-17T21:36:12.136Z,97587.66
2023-01-17T21:38:42.180Z,97581.53
2023-01-17T21:41:12.052Z,97590.97
2023-01-17T21:43:41.897Z,97588.38
2023-01-17T21:46:12.016Z,97588.44
2023-01-17T21:48:44.479Z,97591.75
2023-01-17T21:51:17.386Z,97599.22
2023-01-17T21:53:47.311Z,97595.88
2023-01-17T21:56:30.071Z,97599.03
2023-01-17T21:59:01.628Z,97593.88
2023-01-17T22:01:35.201Z,97595.59
2023-01-17T22:04:06.634Z,97591.09
2023-01-17T22:06:39.376Z,97598.97
2023-01-17T22:09:09.572Z,97602.13
2023-01-17T22:11:39.769Z,97599.13
2023-01-17T22:14:10.070Z,97596.78
2023-01-17T22:16:40.563Z,97600.63
2023-01-17T22:19:10.454Z,97597.38
2023-01-17T22:21:43.840Z,97606.09
2023-01-17T22:24:16.724Z,97608.94
2023-01-17T22:26:46.729Z,97608.72
2023-01-17T22:29:18.972Z,97609.50
2023-01-17T22:31:49.284Z,97612.78
2023-01-17T22:34:19.276Z,97611.13
2023-01-17T22:36:51.775Z,97609.97
2023-01-17T22:39:21.809Z,97604.47
2023-01-17T22:41:51.737Z,97608.72
2023-01-17T22:44:21.590Z,97613.03
2023-01-17T22:46:51.554Z,97617.81
2023-01-17T22:49:23.416Z,97611.94
2023-01-17T22:51:55.899Z,97620.19
2023-01-17T22:54:25.825Z,97614.38
2023-01-17T22:56:55.723Z,97621.31
2023-01-17T22:59:25.783Z,97613.75
2023-01-17T23:01:56.590Z,97620.09
2023-01-17T23:04:26.573Z,97623.06
2023-01-17T23:06:59.058Z,97614.06
2023-01-17T23:09:29.292Z,97614.50
2023-01-17T23:11:59.227Z,97613.66
2023-01-17T23:14:53.165Z,97614.75
2023-01-17T23:17:37.749Z,97612.56
2023-01-17T23:20:09.372Z,97614.03
2023-01-17T23:22:41.885Z,97617.94
2023-01-17T23:25:14.345Z,97617.44
2023-01-17T23:27:58.309Z,97621.78
2023-01-17T23:30:34.488Z,97620.94
2023-01-17T23:33:06.864Z,97615.97
2023-01-17T23:35:41.774Z,97607.16
2023-01-17T23:38:29.806Z,97621.41
2023-01-17T23:41:17.112Z,97617.84
2023-01-17T23:43:46.924Z,97613.94
2023-01-17T23:46:17.009Z,97616.00
2023-01-17T23:48:46.914Z,97615.69
2023-01-17T23:51:17.235Z,97602.94
2023-01-17T23:53:52.196Z,97612.50
2023-01-17T23:56:25.093Z,97613.25
2023-01-17T23:58:54.978Z,97616.34
